createdAt,value
2023-03-31T03:50:38.447Z,20.20
2023-03-31T03:53:07.302Z,18.42
2023-03-31T03:55:36.484Z,18.40
2023-03-31T03:58:05.776Z,18.13
2023-03-31T04:00:34.906Z,17.35
2023-03-31T04:03:05.606Z,18.77
2023-03-31T04:05:34.610Z,18.45
2023-03-31T04:08:03.487Z,17.73
2023-03-31T04:10:32.489Z,18.90
2023-03-31T04:13:01.343Z,18.50
2023-03-31T04:15:30.199Z,22.52
2023-03-31T04:17:59.217Z,18.15
2023-03-31T04:20:30.893Z,18.52
2023-03-31T04:22:59.862Z,20.10
2023-03-31T04:25:31.054Z,18.77
2023-03-31T04:28:00.108Z,19.50
2023-03-31T04:30:31.988Z,18.20
2023-03-31T04:33:03.144Z,17.77
2023-03-31T04:35:49.686Z,18.00
2023-03-31T04:38:20.034Z,18.63
2023-03-31T04:40:50.806Z,19.23
2023-03-31T04:43:20.904Z,18.30
2023-03-31T04:45:50.036Z,19.63
2023-03-31T04:48:19.175Z,19.97
2023-03-31T04:50:49.996Z,19.52
2023-03-31T04:53:18.939Z,19.07
2023-03-31T04:55:47.878Z,18.23
2023-03-31T04:58:16.850Z,18.10
2023-03-31T05:00:45.863Z,17.60
2023-03-31T05:03:14.852Z,17.00
2023-03-31T05:05:43.891Z,17.33
2023-03-31T05:08:14.335Z,18.57
2023-03-31T05:10:43.282Z,19.27
2023-03-31T05:13:12.272Z,18.50
2023-03-31T05:15:41.441Z,19.83
2023-03-31T05:18:10.861Z,18.80
2023-03-31T05:20:40.413Z,17.60
2023-03-31T05:23:09.304Z,16.97
2023-03-31T05:25:39.650Z,18.47
2023-03-31T05:28:08.856Z,19.53
2023-03-31T05:30:38.121Z,21.60
2023-03-31T05:33:07.057Z,19.93
2023-03-31T05:35:36.414Z,18.30
2023-03-31T05:38:05.795Z,17.00
2023-03-31T05:40:34.757Z,18.67
2023-03-31T05:43:05.046Z,17.90
2023-03-31T05:45:33.962Z,17.97
2023-03-31T05:48:03.099Z,19.23
2023-03-31T05:50:32.206Z,16.10
2023-03-31T05:53:01.160Z,15.93
2023-03-31T05:55:31.768Z,15.57
2023-03-31T05:58:02.377Z,15.97
2023-03-31T06:00:33.085Z,17.23
2023-03-31T06:03:02.115Z,18.37
2023-03-31T06:05:32.621Z,16.00
2023-03-31T06:08:01.754Z,17.63
2023-03-31T06:10:30.912Z,17.70
2023-03-31T06:12:59.810Z,14.73
2023-03-31T06:15:28.864Z,16.90
2023-03-31T06:17:59.261Z,14.20
2023-03-31T06:20:28.804Z,20.50
2023-03-31T06:22:58.993Z,13.93
2023-03-31T06:25:32.510Z,12.70
2023-03-31T06:28:09.424Z,14.93
2023-03-31T06:30:38.513Z,14.73
2023-03-31T06:33:09.182Z,16.60
2023-03-31T06:35:39.734Z,21.93
2023-03-31T06:38:09.175Z,18.87
2023-03-31T06:40:38.116Z,15.53
2023-03-31T06:43:07.011Z,15.47
2023-03-31T06:45:36.435Z,17.47
2023-03-31T06:48:05.623Z,15.20
2023-03-31T06:50:36.019Z,15.90
2023-03-31T06:53:05.074Z,17.03
2023-03-31T06:55:34.112Z,13.90
2023-03-31T06:58:03.478Z,18.30
2023-03-31T07:00:32.541Z,14.10
2023-03-31T07:03:01.599Z,14.57
2023-03-31T07:05:31.313Z,13.37
2023-03-31T07:08:02.700Z,20.27
2023-03-31T07:10:34.741Z,82.03
2023-03-31T07:13:05.602Z,49.53
2023-03-31T07:15:34.814Z,48.63
2023-03-31T07:18:03.694Z,24.40
2023-03-31T07:20:32.930Z,16.57
2023-03-31T07:23:06.614Z,13.63
2023-03-31T07:25:36.009Z,14.60
2023-03-31T07:28:06.187Z,14.20
2023-03-31T07:30:35.320Z,13.73
2023-03-31T07:33:04.424Z,15.73
2023-03-31T07:35:33.415Z,16.70
2023-03-31T07:38:03.782Z,16.30
2023-03-31T07:40:32.851Z,21.77
2023-03-31T07:43:02.124Z,21.80
2023-03-31T07:45:31.365Z,17.93
2023-03-31T07:48:00.911Z,15.80
2023-03-31T07:50:29.942Z,19.27
2023-03-31T07:53:00.711Z,12.37
2023-03-31T07:55:31.388Z,11.33
2023-03-31T07:58:00.420Z,10.37
2023-03-31T08:00:29.481Z,9.97
2023-03-31T08:02:58.566Z,10.97
2023-03-31T08:05:27.602Z,9.90
2023-03-31T08:07:56.537Z,10.87
2023-03-31T08:10:27.806Z,11.13
2023-03-31T08:12:58.154Z,12.07
2023-03-31T08:15:46.127Z,11.23
2023-03-31T08:18:15.103Z,12.87
2023-03-31T08:20:44.144Z,14.33
2023-03-31T08:23:13.064Z,11.43
2023-03-31T08:25:41.980Z,12.30
2023-03-31T08:28:31.058Z,12.27
2023-03-31T08:31:16.510Z,12.87
2023-03-31T08:33:45.883Z,12.77
2023-03-31T08:36:15.239Z,14.03
2023-03-31T08:38:46.484Z,15.13
2023-03-31T08:41:44.513Z,14.43
2023-03-31T08:44:17.686Z,15.43
2023-03-31T08:47:07.453Z,14.10
2023-03-31T08:49:41.733Z,17.40
2023-03-31T08:52:16.027Z,15.20
2023-03-31T08:54:49.646Z,14.90
2023-03-31T08:57:22.245Z,17.90
2023-03-31T08:59:52.862Z,16.53
2023-03-31T09:02:32.719Z,16.13
2023-03-31T09:05:24.365Z,21.87
2023-03-31T09:08:21.106Z,14.30
2023-03-31T09:10:57.180Z,13.43
2023-03-31T09:13:45.552Z,13.37
2023-03-31T09:16:17.700Z,11.90
2023-03-31T09:18:47.314Z,17.70
2023-03-31T09:21:20.903Z,12.13
2023-03-31T09:24:14.870Z,9.33
2023-03-31T09:26:47.624Z,9.67
2023-03-31T09:29:44.162Z,11.60
2023-03-31T09:32:19.675Z,12.57
2023-03-31T09:34:52.254Z,13.70
2023-03-31T09:37:21.612Z,10.07
2023-03-31T09:39:50.521Z,9.57
2023-03-31T09:42:20.656Z,10.80
2023-03-31T09:44:51.559Z,10.00
2023-03-31T09:47:30.577Z,9.43
2023-03-31T09:49:59.822Z,8.30
2023-03-31T09:52:32.024Z,10.63
2023-03-31T09:55:03.047Z,18.27
2023-03-31T09:57:34.458Z,14.90
2023-03-31T10:00:16.683Z,13.67
2023-03-31T10:02:51.702Z,22.27
2023-03-31T10:05:30.831Z,19.07
2023-03-31T10:08:20.370Z,24.93
2023-03-31T10:10:51.966Z,10.90
2023-03-31T10:13:23.745Z,8.87
2023-03-31T10:15:55.966Z,9.50
2023-03-31T10:18:35.721Z,7.53
2023-03-31T10:21:06.239Z,7.63
2023-03-31T10:23:36.989Z,7.67
2023-03-31T10:26:07.109Z,8.17
2023-03-31T10:28:37.728Z,6.90
2023-03-31T10:31:08.819Z,7.27
2023-03-31T10:33:45.243Z,7.70
2023-03-31T10:36:23.945Z,9.07
2023-03-31T10:38:53.980Z,7.63
2023-03-31T10:41:25.300Z,7.70
2023-03-31T10:43:55.721Z,8.20
2023-03-31T10:46:44.200Z,8.97
2023-03-31T10:49:27.659Z,8.27
2023-03-31T10:51:59.084Z,9.80
2023-03-31T10:54:28.444Z,8.87
2023-03-31T10:57:01.776Z,11.10
2023-03-31T11:00:05.901Z,10.17
2023-03-31T11:02:50.375Z,9.27
2023-03-31T11:05:28.400Z,9.70
2023-03-31T11:08:15.254Z,8.93
2023-03-31T11:10:59.417Z,8.30
2023-03-31T11:13:37.789Z,8.40
2023-03-31T11:16:20.312Z,7.63
2023-03-31T11:19:12.402Z,8.40
2023-03-31T11:21:54.712Z,11.87
2023-03-31T11:24:55.323Z,10.43
2023-03-31T11:27:34.210Z,7.87
2023-03-31T11:30:12.327Z,7.43
2023-03-31T11:32:57.480Z,11.77
2023-03-31T11:35:45.291Z,13.00
2023-03-31T11:38:34.683Z,7.47
2023-03-31T11:41:07.486Z,8.23
2023-03-31T11:43:41.721Z,9.53
2023-03-31T11:46:16.380Z,10.13
2023-03-31T11:48:49.178Z,7.87
2023-03-31T11:51:23.012Z,8.63
2023-03-31T11:53:55.964Z,9.33
2023-03-31T11:56:27.987Z,7.33
2023-03-31T11:59:01.348Z,7.30
2023-03-31T12:01:40.938Z,8.13
2023-03-31T12:04:18.720Z,5.80
2023-03-31T12:06:50.680Z,5.90
2023-03-31T12:09:26.788Z,7.97
2023-03-31T12:12:02.918Z,8.43
2023-03-31T12:14:36.315Z,7.70
2023-03-31T12:17:29.588Z,8.30
2023-03-31T12:20:02.424Z,9.17
2023-03-31T12:22:34.541Z,8.23
2023-03-31T12:25:05.625Z,8.50
2023-03-31T12:27:40.406Z,9.63
2023-03-31T12:30:15.667Z,8.40
2023-03-31T12:32:49.027Z,10.53
2023-03-31T12:35:24.037Z,8.20
2023-03-31T12:38:07.954Z,11.57
2023-03-31T12:40:47.625Z,9.27
2023-03-31T12:43:50.754Z,9.47
2023-03-31T12:46:32.573Z,10.00
2023-03-31T12:49:13.045Z,10.40
2023-03-31T12:52:02.214Z,7.73
2023-03-31T12:55:01.474Z,9.10
2023-03-31T12:57:32.939Z,8.40
2023-03-31T13:00:27.993Z,9.93
2023-03-31T13:03:34.591Z,12.27
2023-03-31T13:06:03.949Z,11.23
2023-03-31T13:08:54.970Z,9.87
2023-03-31T13:11:37.278Z,9.60
2023-03-31T13:14:14.442Z,10.67
2023-03-31T13:16:43.737Z,16.13
2023-03-31T13:19:28.301Z,12.30
2023-03-31T13:21:59.403Z,13.00
2023-03-31T13:24:29.868Z,10.70
2023-03-31T13:27:01.563Z,19.17
2023-03-31T13:29:44.544Z,14.97
2023-03-31T13:32:27.765Z,16.03
2023-03-31T13:35:01.515Z,16.27
2023-03-31T13:38:03.444Z,12.93
2023-03-31T13:41:10.118Z,13.20
2023-03-31T13:44:05.482Z,20.17
2023-03-31T13:46:57.852Z,15.90
2023-03-31T13:50:01.993Z,17.67
2023-03-31T13:52:41.214Z,12.47
2023-03-31T13:55:54.047Z,11.73
2023-03-31T13:58:40.794Z,10.53
2023-03-31T14:01:42.502Z,10.37
2023-03-31T14:04:41.973Z,13.43
2023-03-31T14:07:16.030Z,12.50
2023-03-31T14:09:50.067Z,11.70
2023-03-31T14:12:24.205Z,11.83
2023-03-31T14:14:57.839Z,12.37
2023-03-31T14:17:31.387Z,11.07
2023-03-31T14:20:28.748Z,9.10
2023-03-31T14:23:15.797Z,9.97
2023-03-31T14:25:52.784Z,10.80
2023-03-31T14:28:47.116Z,9.80
2023-03-31T14:31:21.797Z,10.93
2023-03-31T14:34:08.694Z,10.10
2023-03-31T14:36:48.273Z,10.60
2023-03-31T14:39:23.836Z,9.00
2023-03-31T14:41:55.187Z,9.40
2023-03-31T14:44:27.286Z,9.10
2023-03-31T14:46:58.679Z,17.37
2023-03-31T14:49:29.477Z,9.30
2023-03-31T14:52:06.721Z,8.10
2023-03-31T14:54:38.701Z,9.57
2023-03-31T14:57:07.907Z,8.83
2023-03-31T14:59:37.708Z,11.53
2023-03-31T15:02:07.695Z,9.50
2023-03-31T15:04:46.660Z,10.40
2023-03-31T15:07:18.162Z,11.87
2023-03-31T15:09:52.125Z,13.03
2023-03-31T15:12:23.717Z,14.50
2023-03-31T15:14:56.514Z,12.63
2023-03-31T15:17:27.445Z,9.60
2023-03-31T15:19:58.223Z,13.50
2023-03-31T15:22:50.958Z,11.27
2023-03-31T15:25:22.407Z,9.93
2023-03-31T15:27:54.997Z,10.00
2023-03-31T15:30:26.904Z,10.13
2023-03-31T15:33:01.479Z,11.10
2023-03-31T15:35:37.558Z,10.60
2023-03-31T15:38:08.484Z,11.53
2023-03-31T15:40:41.151Z,11.67
2023-03-31T15:43:25.433Z,11.60
2023-03-31T15:45:58.500Z,13.03
2023-03-31T15:48:33.929Z,12.47
2023-03-31T15:51:06.785Z,12.27
2023-03-31T15:53:46.932Z,13.23
2023-03-31T15:56:31.446Z,13.13
2023-03-31T15:59:04.590Z,16.93
2023-03-31T16:01:36.815Z,18.00
2023-03-31T16:04:10.402Z,14.20
2023-03-31T16:06:47.314Z,12.43
2023-03-31T16:09:21.677Z,15.27
2023-03-31T16:11:53.246Z,17.83
2023-03-31T16:14:24.632Z,15.20
2023-03-31T16:16:59.324Z,17.13
2023-03-31T16:19:32.227Z,27.93
2023-03-31T16:22:03.676Z,35.07
2023-03-31T16:24:36.244Z,36.03
2023-03-31T16:27:07.963Z,19.73
2023-03-31T16:29:38.783Z,21.10
2023-03-31T16:32:13.794Z,22.27
2023-03-31T16:34:57.290Z,19.07
2023-03-31T16:37:26.891Z,31.77
2023-03-31T16:39:57.835Z,44.50
2023-03-31T16:42:27.351Z,24.83
2023-03-31T16:45:12.591Z,19.60
2023-03-31T16:47:45.487Z,19.97
2023-03-31T16:50:15.985Z,20.93
2023-03-31T16:52:45.657Z,21.07
2023-03-31T16:55:16.318Z,22.63
2023-03-31T16:57:45.683Z,20.80
2023-03-31T17:00:16.441Z,16.57
2023-03-31T17:02:45.541Z,16.43
2023-03-31T17:05:15.311Z,16.30
2023-03-31T17:07:45.027Z,15.67
2023-03-31T17:10:14.303Z,14.37
2023-03-31T17:12:44.909Z,15.27
2023-03-31T17:15:14.891Z,15.70
2023-03-31T17:17:43.947Z,14.60
2023-03-31T17:20:19.294Z,15.17
2023-03-31T17:22:51.805Z,16.67
2023-03-31T17:25:20.927Z,20.07
2023-03-31T17:27:51.202Z,25.50
2023-03-31T17:30:20.174Z,32.63
2023-03-31T17:32:50.681Z,24.73
2023-03-31T17:35:22.757Z,21.23
2023-03-31T17:37:53.955Z,21.23
2023-03-31T17:40:23.694Z,22.33
2023-03-31T17:42:54.823Z,21.80
2023-03-31T17:45:24.188Z,22.97
2023-03-31T17:47:53.953Z,25.90
2023-03-31T17:50:23.878Z,23.10
2023-03-31T17:52:52.984Z,24.30
2023-03-31T17:55:21.902Z,22.43
2023-03-31T17:57:51.145Z,18.23
2023-03-31T18:00:22.145Z,18.50
2023-03-31T18:02:51.688Z,18.23
2023-03-31T18:05:20.684Z,20.13
2023-03-31T18:07:49.512Z,26.60
2023-03-31T18:10:18.852Z,61.13
2023-03-31T18:12:48.010Z,55.30
2023-03-31T18:15:17.038Z,21.63
2023-03-31T18:17:48.223Z,20.73
2023-03-31T18:20:17.258Z,23.67
2023-03-31T18:22:46.122Z,19.30
2023-03-31T18:25:15.643Z,16.37
2023-03-31T18:27:44.639Z,17.30
2023-03-31T18:30:14.926Z,15.60
2023-03-31T18:32:44.102Z,16.17
2023-03-31T18:35:14.635Z,17.17
2023-03-31T18:37:46.410Z,17.73
2023-03-31T18:40:15.948Z,19.50
2023-03-31T18:42:44.974Z,20.03
2023-03-31T18:45:13.906Z,19.10
2023-03-31T18:47:43.392Z,18.23
2023-03-31T18:50:14.404Z,16.30
2023-03-31T18:52:43.366Z,15.37
2023-03-31T18:55:12.376Z,16.17
2023-03-31T18:57:41.408Z,17.50
2023-03-31T19:00:11.484Z,17.23
2023-03-31T19:02:41.044Z,16.60
2023-03-31T19:05:13.739Z,16.67
2023-03-31T19:07:44.243Z,14.47
2023-03-31T19:10:21.074Z,14.60
2023-03-31T19:12:50.438Z,14.03
2023-03-31T19:15:19.624Z,13.93
2023-03-31T19:17:48.598Z,14.73
2023-03-31T19:20:17.758Z,15.97
2023-03-31T19:22:49.479Z,14.97
2023-03-31T19:25:19.567Z,14.83
2023-03-31T19:27:48.654Z,13.30
2023-03-31T19:30:20.374Z,13.17
2023-03-31T19:32:50.699Z,12.57
2023-03-31T19:35:21.019Z,12.17
2023-03-31T19:37:58.956Z,11.23
2023-03-31T19:40:29.274Z,11.23
2023-03-31T19:42:58.237Z,11.50
2023-03-31T19:45:27.230Z,11.13
2023-03-31T19:47:56.374Z,11.97
2023-03-31T19:50:26.246Z,12.43
2023-03-31T19:52:56.752Z,10.47
2023-03-31T19:55:26.176Z,10.27
2023-03-31T19:57:55.293Z,10.53
2023-03-31T20:00:31.968Z,9.63
2023-03-31T20:03:03.843Z,9.90
2023-03-31T20:05:34.938Z,12.27
2023-03-31T20:08:05.704Z,15.03
2023-03-31T20:10:53.732Z,11.13
2023-03-31T20:13:22.798Z,10.50
2023-03-31T20:16:00.951Z,9.57
2023-03-31T20:18:30.723Z,12.73
2023-03-31T20:21:08.771Z,9.57
2023-03-31T20:23:40.528Z,10.60
2023-03-31T20:26:11.917Z,10.03
2023-03-31T20:28:41.977Z,10.37
2023-03-31T20:31:11.972Z,10.33
2023-03-31T20:33:42.202Z,10.33
2023-03-31T20:36:13.742Z,11.50
2023-03-31T20:38:46.634Z,11.03
2023-03-31T20:41:16.448Z,10.73
2023-03-31T20:43:45.579Z,11.53
2023-03-31T20:46:14.672Z,10.47
2023-03-31T20:48:46.277Z,10.63
2023-03-31T20:51:19.503Z,11.53
2023-03-31T20:54:09.183Z,10.90
2023-03-31T20:56:40.656Z,9.87
2023-03-31T20:59:11.769Z,10.10
2023-03-31T21:01:42.827Z,10.00
2023-03-31T21:04:13.380Z,13.37
2023-03-31T21:06:44.735Z,15.03
2023-03-31T21:09:16.140Z,13.80
2023-03-31T21:11:45.093Z,12.20
2023-03-31T21:14:16.008Z,10.73
2023-03-31T21:16:45.669Z,10.70
2023-03-31T21:19:14.642Z,11.07
2023-03-31T21:21:43.537Z,10.80
2023-03-31T21:24:15.156Z,11.03
2023-03-31T21:26:44.492Z,12.23
2023-03-31T21:29:13.302Z,10.90
2023-03-31T21:31:45.070Z,11.20
2023-03-31T21:34:14.346Z,10.70
2023-03-31T21:36:43.654Z,11.30
2023-03-31T21:39:12.662Z,11.23
2023-03-31T21:41:43.357Z,11.93
2023-03-31T21:44:12.238Z,12.97
2023-03-31T21:46:41.374Z,12.33
2023-03-31T21:49:10.319Z,12.70
2023-03-31T21:51:39.425Z,14.33
2023-03-31T21:54:08.282Z,12.90
2023-03-31T21:56:37.483Z,13.67
2023-03-31T21:59:08.955Z,13.13
2023-03-31T22:01:38.104Z,13.93
2023-03-31T22:04:07.565Z,12.60
2023-03-31T22:06:39.636Z,14.53
2023-03-31T22:09:08.676Z,14.43
2023-03-31T22:11:37.510Z,15.33
2023-03-31T22:14:08.095Z,14.30
2023-03-31T22:16:37.155Z,14.00
2023-03-31T22:19:06.119Z,13.90
2023-03-31T22:21:45.903Z,15.70
2023-03-31T22:24:15.300Z,15.40
2023-03-31T22:26:44.360Z,16.60
2023-03-31T22:29:17.903Z,13.43
2023-03-31T22:31:47.006Z,14.23
2023-03-31T22:34:16.130Z,14.23
2023-03-31T22:36:45.106Z,13.53
2023-03-31T22:39:14.132Z,14.43
2023-03-31T22:41:43.088Z,20.27
2023-03-31T22:44:12.781Z,20.17
2023-03-31T22:46:46.651Z,33.43
2023-03-31T22:49:16.253Z,33.10
2023-03-31T22:51:45.354Z,34.83
2023-03-31T22:54:16.050Z,36.00
2023-03-31T22:56:45.641Z,34.20
2023-03-31T22:59:14.520Z,33.80
2023-03-31T23:01:47.162Z,26.50
2023-03-31T23:04:16.257Z,31.37
2023-03-31T23:06:45.130Z,30.63
2023-03-31T23:09:14.261Z,29.83
2023-03-31T23:11:45.095Z,24.30
2023-03-31T23:14:14.389Z,19.93
2023-03-31T23:16:44.756Z,19.97
2023-03-31T23:19:15.287Z,19.73
2023-03-31T23:21:44.324Z,18.47
2023-03-31T23:24:13.213Z,19.40
2023-03-31T23:26:42.065Z,21.77
2023-03-31T23:29:11.033Z,20.43
2023-03-31T23:31:39.884Z,18.60
2023-03-31T23:34:11.519Z,18.17
2023-03-31T23:36:40.335Z,16.63
2023-03-31T23:39:09.144Z,18.03
2023-03-31T23:41:37.979Z,16.87
2023-03-31T23:44:07.591Z,17.00
2023-03-31T23:46:38.124Z,17.57
2023-03-31T23:49:07.839Z,17.60
2023-03-31T23:51:38.153Z,17.13
2023-03-31T23:54:07.461Z,17.27
2023-03-31T23:56:36.312Z,15.63
2023-03-31T23:59:05.203Z,16.00
